Airfield :
LOGIN :

Register | Disclaimer

   EN    FR    IT 

 










Legend :    VFR   Marginal VFR   IFR   Intensive IFR   Very Intensive IFR
Visi :
Ceiling :
>= 8 km
>= 3000ft
5 to 8 km
1000 to 3000 ft
1500m to 5 km
500 to 1000 ft
800 to 1500m
200 to 500 ft
< 800m
< 200 ft
Symbols :   Thunderstorms  Fog  Heavy snow  Heavy precipitations  Wind > 20 kt
SIGMETs :     Misc.  Thunderstorms  Icing  Turbulence  Mountain Waves  Volcanic Ashes






- Airport Elevation : 348 ft
- IATA code : LDV


LFRJ - Landivisiau

CURRENT METAR :
  • 281600Z AUTO 22019KT 9000 1900 RA SCT017/// BKN031/// BKN039/// ///CB 14/12 Q1015 TEMPO 22020G30KT 1500 TSRA BKN010CB

EXPIRED METARs :
  • 281530Z AUTO 22020KT 9999 -RA SCT019/// SCT040/// BKN056/// ///CB 15/13 Q1014 TEMPO 22020G30KT 1500 TSRA BKN010CB
  • 281500Z AUTO 22016G27KT 9999 -RA BKN021/// BKN031/// BKN045/// ///TCU 16/13 Q1015 TEMPO 1500 TSRA BKN010CB
  • 281430Z AUTO 21017KT 180V240 9999 BKN025/// BKN031/// BKN037/// ///TCU 17/12 Q1015 TEMPO 1500 +TSRA BKN010CB
  • 281400Z AUTO 21019KT 9999 BKN025 BKN032 BKN040 17/13 Q1015 TEMPO 22020G35KT 2000 TSRA BKN008 BKN010CB
  • 281330Z AUTO 22019KT 9999 BKN024/// BKN029/// BKN038/// ///TCU 18/12 Q1016 TEMPO 22020G35KT 2000 TSRA BKN008 BKN010CB
  • 281300Z AUTO 21020KT 9999 SCT023/// BKN028/// BKN043/// ///TCU 17/13 Q1016 TEMPO 21015G25KT 4000 SHRA BKN015CB

TAF AMD TAF LFRJ
Valid from the 28 at 15:00 until the 29 at 00:00 UTC


281442Z 2815/2824 22015KT 9999 BKN025
TEMPO 2815/2824 22020G30KT 4000 SHRA BKN015CB
PROB40 2815/2819 1500 TSRA BKN010CB



MET'MAP, your aeronautical weather chart ! - Copyright ORBIFLY December 2007 - Disclaimer

ORBIFLY MET'MAP TEAM :

Programming & Development : Alexandra Zaïnal
Concept & original design : Baudouin d'Aumeries
Assistance for programming : Marc-Olivier Méhu
Technical & hardware support : Manuel Goepfert

Contact : metmap@orbifly.com




SOURCES & CREDITS :

   NOAA